createdAt,value
2022-12-15T00:04:12.483Z,99183.06
2022-12-15T00:09:31.140Z,99197.44
2022-12-15T00:14:50.947Z,99197.28
2022-12-15T00:20:09.040Z,99194.63
2022-12-15T00:25:27.432Z,99191.16
2022-12-15T00:30:50.103Z,99185.91
2022-12-15T00:36:08.793Z,99185.84
2022-12-15T00:41:09.791Z,99198.22
2022-12-15T00:46:29.728Z,99198.09
2022-12-15T00:51:48.144Z,99206.53
2022-12-15T00:57:06.307Z,99212.53
2022-12-15T01:02:26.179Z,99214.06
2022-12-15T01:07:44.902Z,99227.47
2022-12-15T01:13:08.264Z,99229.59
2022-12-15T01:18:28.122Z,99238.78
2022-12-15T01:23:29.260Z,99246.34
2022-12-15T01:28:30.523Z,99246.19
2022-12-15T01:33:33.093Z,99260.81
2022-12-15T01:38:33.994Z,99269.41
2022-12-15T01:43:36.647Z,99276.75
2022-12-15T01:48:43.177Z,99271.91
2022-12-15T01:53:50.120Z,99280.44
2022-12-15T01:58:54.343Z,99286.59
2022-12-15T02:03:56.916Z,99294.66
2022-12-15T02:09:01.080Z,99305.19
2022-12-15T02:14:04.162Z,99297.81
2022-12-15T02:19:31.150Z,99295.66
2022-12-15T02:24:49.927Z,99302.69
2022-12-15T02:30:26.461Z,99306.44
2022-12-15T02:35:33.281Z,99315.72
2022-12-15T02:40:34.138Z,99311.44
2022-12-15T02:45:47.927Z,99314.44
2022-12-15T02:51:12.924Z,99310.13
2022-12-15T02:56:20.075Z,99323.22
2022-12-15T03:01:31.896Z,99328.88
2022-12-15T03:06:32.766Z,99341.66
2022-12-15T03:11:33.712Z,99341.84
2022-12-15T03:16:35.845Z,99359.50
2022-12-15T03:21:36.606Z,99362.00
2022-12-15T03:26:37.443Z,99374.81
2022-12-15T03:31:39.627Z,99375.50
2022-12-15T03:36:40.493Z,99379.09
2022-12-15T03:41:41.675Z,99382.44
2022-12-15T03:46:43.892Z,99398.63
2022-12-15T03:51:45.033Z,99396.88
2022-12-15T03:56:45.916Z,99401.00
2022-12-15T04:01:49.197Z,99399.88
2022-12-15T04:06:50.134Z,99404.91
2022-12-15T04:11:50.884Z,99414.78
2022-12-15T04:16:53.156Z,99422.56
2022-12-15T04:21:54.041Z,99440.75
2022-12-15T04:27:13.423Z,99441.66
2022-12-15T04:32:33.117Z,99447.38
2022-12-15T04:37:51.550Z,99460.75
2022-12-15T04:43:09.991Z,99470.63
2022-12-15T04:48:29.921Z,99476.34
2022-12-15T04:53:48.102Z,99484.47
2022-12-15T04:59:06.886Z,99486.91
2022-12-15T05:04:26.646Z,99493.59
2022-12-15T05:09:44.936Z,99496.81
2022-12-15T05:15:03.886Z,99502.53
2022-12-15T05:20:24.418Z,99509.13
2022-12-15T05:25:43.006Z,99520.06
2022-12-15T05:31:01.223Z,99517.47
2022-12-15T05:36:03.381Z,99523.56
2022-12-15T05:41:04.188Z,99536.19
2022-12-15T05:46:05.599Z,99535.66
2022-12-15T05:51:10.226Z,99542.84
2022-12-15T05:56:12.546Z,99554.47
2022-12-15T06:01:15.251Z,99562.56
2022-12-15T06:06:18.093Z,99564.28
2022-12-15T06:11:21.329Z,99569.06
2022-12-15T06:16:24.324Z,99576.38
2022-12-15T06:21:29.009Z,99580.59
2022-12-15T06:26:31.839Z,99588.66
2022-12-15T06:31:34.025Z,99591.22
2022-12-15T06:36:36.361Z,99604.59
2022-12-15T06:41:38.903Z,99612.81
2022-12-15T06:46:45.374Z,99621.28
2022-12-15T06:51:51.400Z,99625.72
2022-12-15T06:56:52.943Z,99634.28
2022-12-15T07:01:53.868Z,99636.16
2022-12-15T07:06:56.852Z,99638.56
2022-12-15T07:11:57.979Z,99639.75
2022-12-15T07:16:58.848Z,99656.56
2022-12-15T07:22:01.500Z,99654.53
2022-12-15T07:27:02.545Z,99665.53
2022-12-15T07:32:03.524Z,99684.94
2022-12-15T07:37:05.892Z,99687.66
2022-12-15T07:42:07.115Z,99681.44
2022-12-15T07:47:07.923Z,99690.91
2022-12-15T07:52:10.111Z,99708.69
2022-12-15T07:57:10.873Z,99701.41
2022-12-15T08:02:12.632Z,99705.44
2022-12-15T08:07:20.900Z,99707.13
2022-12-15T08:12:22.280Z,99696.78
2022-12-15T08:17:23.174Z,99701.28
2022-12-15T08:22:25.487Z,99714.28
2022-12-15T08:27:27.322Z,99711.38
2022-12-15T08:32:28.141Z,99721.84
2022-12-15T08:37:30.693Z,99733.41
2022-12-15T08:42:34.408Z,99728.75
2022-12-15T08:47:35.333Z,99746.44
2022-12-15T08:52:55.233Z,99738.44
2022-12-15T08:58:03.104Z,99747.88
2022-12-15T09:03:04.397Z,99739.22
2022-12-15T09:08:07.411Z,99734.50
2022-12-15T09:13:08.228Z,99737.38
2022-12-15T09:18:09.272Z,99736.75
2022-12-15T09:23:11.485Z,99749.31
2022-12-15T09:28:12.308Z,99746.41
2022-12-15T09:33:13.190Z,99753.25
2022-12-15T09:38:15.343Z,99748.06
2022-12-15T09:43:47.099Z,99752.59
2022-12-15T09:48:52.300Z,99750.47
2022-12-15T09:53:55.890Z,99750.56
2022-12-15T09:59:04.353Z,99764.47
2022-12-15T10:04:14.213Z,99765.69
2022-12-15T10:09:21.384Z,99753.97
2022-12-15T10:14:29.447Z,99764.63
2022-12-15T10:19:39.726Z,99768.97
2022-12-15T10:25:09.326Z,99774.16
2022-12-15T10:30:05.717Z,99769.56
2022-12-15T10:35:14.072Z,99778.09
2022-12-15T10:40:41.889Z,99777.66
2022-12-15T10:45:42.759Z,99783.22
2022-12-15T10:50:43.694Z,99790.44
2022-12-15T11:01:09.265Z,99786.91
2022-12-15T11:06:16.177Z,99783.31
2022-12-15T11:11:48.282Z,99777.91
2022-12-15T11:16:54.424Z,99775.06
2022-12-15T11:22:00.855Z,99785.28
2022-12-15T11:27:11.683Z,99778.53
2022-12-15T11:32:14.010Z,99776.41
2022-12-15T11:37:41.055Z,99771.56
2022-12-15T11:42:55.216Z,99770.19
2022-12-15T11:48:06.716Z,99767.66
2022-12-15T11:53:19.514Z,99765.28
2022-12-15T11:58:50.818Z,99763.88
2022-12-15T12:04:02.708Z,99764.09
2022-12-15T12:09:18.038Z,99765.19
2022-12-15T12:14:31.885Z,99758.00
2022-12-15T12:19:38.044Z,99743.16
2022-12-15T12:24:45.191Z,99730.91
2022-12-15T12:29:56.623Z,99734.03
2022-12-15T12:35:31.635Z,99735.34
2022-12-15T12:40:33.226Z,99739.09
2022-12-15T12:45:44.188Z,99742.50
2022-12-15T12:50:47.626Z,99744.94
2022-12-15T12:55:51.572Z,99747.31
2022-12-15T13:01:21.226Z,99744.22
2022-12-15T13:06:43.749Z,99747.97
2022-12-15T13:12:15.062Z,99736.75
2022-12-15T13:17:31.457Z,99740.44
2022-12-15T13:22:35.581Z,99742.31
2022-12-15T13:27:37.802Z,99739.66
2022-12-15T13:32:42.915Z,99731.00
2022-12-15T13:37:50.623Z,99727.63
2022-12-15T13:42:58.891Z,99740.31
2022-12-15T13:48:02.220Z,99754.66
2022-12-15T13:53:20.381Z,99750.63
2022-12-15T13:58:22.912Z,99755.28
2022-12-15T14:03:25.726Z,99764.59
2022-12-15T14:08:29.709Z,99768.75
2022-12-15T14:13:36.991Z,99776.09
2022-12-15T14:18:40.860Z,99773.56
2022-12-15T14:24:10.902Z,99762.06
2022-12-15T14:29:07.781Z,99766.41
2022-12-15T14:34:15.684Z,99763.25
2022-12-15T14:39:23.418Z,99762.16
2022-12-15T14:44:38.159Z,99772.28
2022-12-15T14:49:42.739Z,99773.63
2022-12-15T14:54:52.882Z,99775.53
2022-12-15T14:59:58.435Z,99774.41
2022-12-15T15:03:04.592Z,99790.59
2022-12-15T15:05:03.339Z,99770.50
2022-12-15T15:10:21.389Z,99764.31
2022-12-15T15:15:27.597Z,99761.38
2022-12-15T15:20:32.025Z,99761.94
2022-12-15T15:25:40.331Z,99761.88
2022-12-15T15:30:44.968Z,99766.50
2022-12-15T15:35:51.312Z,99759.63
2022-12-15T15:41:17.562Z,99773.13
2022-12-15T15:46:21.811Z,99762.44
2022-12-15T15:51:26.005Z,99760.41
2022-12-15T15:56:28.436Z,99753.25
2022-12-15T16:01:29.376Z,99765.69
2022-12-15T16:06:31.548Z,99777.41
2022-12-15T16:11:32.393Z,99789.16
2022-12-15T16:16:34.509Z,99791.31
2022-12-15T16:21:37.446Z,99787.22
2022-12-15T16:26:39.319Z,99798.81
2022-12-15T16:31:45.253Z,99812.25
2022-12-15T16:36:47.799Z,99806.31
2022-12-15T16:41:48.518Z,99799.47
2022-12-15T16:46:49.308Z,99811.97
2022-12-15T16:51:54.356Z,99828.75
2022-12-15T16:56:57.323Z,99830.34
2022-12-15T17:01:58.638Z,99830.25
2022-12-15T17:07:00.963Z,99829.31
2022-12-15T17:12:02.504Z,99822.47
2022-12-15T17:17:03.903Z,99824.50
2022-12-15T17:22:06.049Z,99833.22
2022-12-15T17:27:06.905Z,99836.94
2022-12-15T17:32:12.292Z,99830.41
2022-12-15T17:37:15.415Z,99824.00
2022-12-15T17:42:19.642Z,99822.97
2022-12-15T17:47:20.547Z,99819.34
2022-12-15T17:52:29.423Z,99823.66
2022-12-15T17:57:31.929Z,99825.34
2022-12-15T18:02:33.022Z,99828.06
2022-12-15T18:07:36.156Z,99817.94
2022-12-15T18:12:37.152Z,99809.53
2022-12-15T18:17:37.920Z,99797.72
2022-12-15T18:22:40.043Z,99801.03
2022-12-15T18:27:40.797Z,99807.28
2022-12-15T18:32:42.166Z,99813.38
2022-12-15T18:37:44.998Z,99821.06
2022-12-15T18:42:46.902Z,99827.09
2022-12-15T18:47:47.804Z,99825.47
2022-12-15T18:53:00.788Z,99827.25
2022-12-15T18:58:01.799Z,99820.59
2022-12-15T19:03:02.767Z,99817.19
2022-12-15T19:08:11.797Z,99811.97
2022-12-15T19:13:14.233Z,99808.84
2022-12-15T19:18:33.335Z,99806.28
2022-12-15T19:23:35.767Z,99802.75
2022-12-15T19:28:36.732Z,99802.88
2022-12-15T19:33:37.643Z,99804.69
2022-12-15T19:38:39.776Z,99819.31
2022-12-15T19:43:40.610Z,99811.75
2022-12-15T19:48:41.618Z,99808.50
2022-12-15T19:53:45.520Z,99807.75
2022-12-15T19:58:46.584Z,99794.22
2022-12-15T20:03:49.334Z,99798.31
2022-12-15T20:08:53.454Z,99797.03
2022-12-15T20:13:56.227Z,99794.47
2022-12-15T20:18:57.116Z,99794.53
2022-12-15T20:24:02.297Z,99786.13
2022-12-15T20:29:03.384Z,99796.38
2022-12-15T20:34:04.208Z,99770.09
2022-12-15T20:39:18.676Z,99768.31
2022-12-15T20:44:19.587Z,99754.84
2022-12-15T20:49:23.109Z,99740.28
2022-12-15T20:54:25.412Z,99737.59
2022-12-15T20:59:26.219Z,99734.31
2022-12-15T21:04:29.422Z,99717.56
2022-12-15T21:09:31.756Z,99717.28
2022-12-15T21:14:32.700Z,99724.06
2022-12-15T21:19:33.505Z,99716.63
2022-12-15T21:24:35.882Z,99718.63
2022-12-15T21:29:37.235Z,99706.44
2022-12-15T21:34:38.300Z,99722.25
2022-12-15T21:39:40.496Z,99714.28
2022-12-15T21:44:41.632Z,99710.88
2022-12-15T21:49:42.420Z,99703.44
2022-12-15T21:54:44.664Z,99712.09
2022-12-15T21:59:45.417Z,99698.31
2022-12-15T22:04:47.316Z,99708.53
2022-12-15T22:09:49.428Z,99707.78
2022-12-15T22:14:52.042Z,99724.56
2022-12-15T22:19:53.102Z,99723.69
2022-12-15T22:24:55.216Z,99730.59
2022-12-15T22:29:56.647Z,99729.38
2022-12-15T22:34:57.384Z,99721.66
2022-12-15T22:39:59.511Z,99724.69
2022-12-15T22:45:00.417Z,99731.53
2022-12-15T22:50:01.214Z,99736.97
2022-12-15T22:55:03.409Z,99741.00
2022-12-15T23:00:08.034Z,99731.03
2022-12-15T23:05:09.546Z,99738.38
2022-12-15T23:10:31.307Z,99747.88
2022-12-15T23:15:50.268Z,99758.75
2022-12-15T23:20:52.552Z,99743.72
2022-12-15T23:25:54.820Z,99726.03
2022-12-15T23:30:56.553Z,99712.53
2022-12-15T23:35:58.802Z,99701.72
2022-12-15T23:41:00.980Z,99700.88
2022-12-15T23:46:05.275Z,99703.56
2022-12-15T23:51:08.014Z,99706.13
2022-12-15T23:56:13.237Z,99711.94
